Time,TemperatureF,DewpointF,PressureIn,WindDirection,WindDirectionDegrees,WindSpeedMPH,WindSpeedGustMPH,Humidity,HourlyPrecipIn,Conditions,Clouds,dailyrainin,SoftwareType,DateUTC
2013-06-29 08:13:00,72.1,64.9,29.62,South,172,0.0,0.0,78,0.00,,---,0.00,VWS V14.01,2013-06-29 12:13:00,
2013-06-29 08:14:00,72.1,64.9,29.62,WSW,250,0.0,0.0,78,0.00,,---,0.00,VWS V14.01,2013-06-29 12:14:00,
2013-06-29 08:15:00,72.1,64.9,29.62,WSW,251,4.3,5.7,78,0.00,,---,0.00,VWS V14.01,2013-06-29 12:15:00,
2013-06-29 08:16:00,72.1,64.9,29.62,South,186,5.7,6.4,78,0.00,,---,0.00,VWS V14.01,2013-06-29 12:16:00,
2013-06-29 08:20:00,72.3,64.7,29.62,SW,233,0.0,7.9,77,0.00,,---,0.00,VWS V14.01,2013-06-29 12:20:00,
2013-06-29 08:26:00,72.5,64.9,29.62,WNW,282,0.0,6.4,77,0.00,,---,0.00,VWS V14.01,2013-06-29 12:26:00,
2013-06-29 08:32:00,72.5,64.5,29.62,South,187,4.3,6.4,76,0.00,,---,0.00,VWS V14.01,2013-06-29 12:32:00,
2013-06-29 08:37:00,72.7,64.7,29.62,SW,234,0.0,0.0,76,0.00,,---,0.00,VWS V14.01,2013-06-29 12:37:00,
2013-06-29 08:43:00,72.9,64.5,29.62,WSW,238,8.6,8.6,75,0.00,,---,0.00,VWS V14.01,2013-06-29 12:43:00,
2013-06-29 08:48:00,73.0,64.7,29.62,West,272,6.4,6.4,75,0.00,,---,0.00,VWS V14.01,2013-06-29 12:48:00,
2013-06-29 08:53:00,73.2,64.4,29.62,South,185,10.0,10.0,74,0.00,,---,0.00,VWS V14.01,2013-06-29 12:53:00,
2013-06-29 08:58:00,73.4,64.2,29.62,WSW,258,0.0,0.0,73,0.00,,---,0.00,VWS V14.01,2013-06-29 12:58:00,
2013-06-29 09:03:00,73.8,64.2,29.62,WSW,238,5.0,10.0,72,0.00,,---,0.00,VWS V14.01,2013-06-29 13:03:00,
2013-06-29 09:08:00,73.9,64.0,29.62,SSW,207,6.4,6.4,71,0.00,,---,0.00,VWS V14.01,2013-06-29 13:08:00,
2013-06-29 09:14:00,73.9,64.0,29.62,WSW,240,6.4,6.4,71,0.00,,---,0.00,VWS V14.01,2013-06-29 13:14:00,
2013-06-29 09:19:00,73.9,64.0,29.62,WSW,240,6.4,6.4,71,0.00,,---,0.00,VWS V14.01,2013-06-29 13:19:00,
2013-06-29 09:24:00,73.9,64.0,29.62,WSW,240,6.4,6.4,71,0.00,,---,0.00,VWS V14.01,2013-06-29 13:24:00,
2013-06-29 09:29:00,73.9,64.0,29.62,South,189,0.0,0.0,71,0.00,,---,0.00,VWS V14.01,2013-06-29 13:29:00,
2013-06-29 09:35:00,75.6,63.4,29.62,South,189,0.0,0.0,66,0.00,,---,0.00,VWS V14.01,2013-06-29 13:35:00,
2013-06-29 09:40:00,75.6,63.4,29.62,South,189,0.0,0.0,66,0.00,,---,0.00,VWS V14.01,2013-06-29 13:40:00,
2013-06-29 09:45:00,75.6,63.4,29.62,South,189,0.0,0.0,66,0.00,,---,0.00,VWS V14.01,2013-06-29 13:45:00,
2013-06-29 09:50:00,75.6,63.4,29.62,South,189,0.0,0.0,66,0.00,,---,0.00,VWS V14.01,2013-06-29 13:50:00,
2013-06-29 09:56:00,75.6,63.4,29.62,South,189,0.0,0.0,66,0.00,,---,0.00,VWS V14.01,2013-06-29 13:56:00,
2013-06-29 10:01:00,75.6,63.4,29.62,South,189,0.0,0.0,66,0.00,,---,0.00,VWS V14.01,2013-06-29 14:01:00,
2013-06-29 10:06:00,77.0,60.1,29.62,South,189,0.0,0.0,56,0.00,,---,0.00,VWS V14.01,2013-06-29 14:06:00,
2013-06-29 10:12:00,77.5,59.6,29.62,South,189,0.0,0.0,54,0.00,,---,0.00,VWS V14.01,2013-06-29 14:12:00,
2013-06-29 12:02:00,84.0,49.3,29.62,WSW,245,10.0,10.0,30,0.00,,---,0.00,VWS V14.01,2013-06-29 16:02:00,
2013-06-29 12:07:00,84.4,48.7,29.62,ESE,120,5.0,10.0,29,0.00,,---,0.00,VWS V14.01,2013-06-29 16:07:00,
2013-06-29 12:13:00,84.7,49.0,29.62,WSW,240,5.0,10.0,29,0.00,,---,0.00,VWS V14.01,2013-06-29 16:13:00,
2013-06-29 12:18:00,85.1,49.3,29.62,WNW,302,5.7,8.6,29,0.00,,---,0.00,VWS V14.01,2013-06-29 16:18:00,
2013-06-29 12:24:00,85.5,47.7,29.62,SE,140,6.4,10.0,27,0.00,,---,0.00,VWS V14.01,2013-06-29 16:24:00,
2013-06-29 12:29:00,85.6,46.8,29.62,SSE,157,6.4,9.3,26,0.00,,---,0.00,VWS V14.01,2013-06-29 16:29:00,
2013-06-29 12:35:00,85.8,47.0,29.62,South,177,6.4,10.7,26,0.00,,---,0.00,VWS V14.01,2013-06-29 16:35:00,
2013-06-29 12:41:00,86.0,45.0,29.62,SSW,213,8.6,11.5,24,0.00,,---,0.00,VWS V14.01,2013-06-29 16:41:00,
2013-06-29 12:46:00,86.4,44.2,29.62,SSW,198,9.3,16.8,23,0.00,,---,0.00,VWS V14.01,2013-06-29 16:46:00,
2013-06-29 12:52:00,86.5,43.2,29.62,SSW,194,10.0,13.2,22,0.00,,---,0.00,VWS V14.01,2013-06-29 16:52:00,
2013-06-29 12:58:00,86.9,43.5,29.62,SE,126,9.3,9.3,22,0.00,,---,0.00,VWS V14.01,2013-06-29 16:58:00,
2013-06-29 13:03:00,87.1,43.7,29.62,WSW,249,5.7,8.6,22,0.00,,---,0.00,VWS V14.01,2013-06-29 17:03:00,
2013-06-29 13:09:00,87.1,42.5,29.62,SSW,203,9.3,9.3,21,0.00,,---,0.00,VWS V14.01,2013-06-29 17:09:00,
2013-06-29 13:14:00,87.3,42.6,29.62,SW,236,8.6,9.3,21,0.00,,---,0.00,VWS V14.01,2013-06-29 17:14:00,
2013-06-29 13:19:00,87.6,42.9,29.62,WSW,242,5.7,10.0,21,0.00,,---,0.00,VWS V14.01,2013-06-29 17:19:00,
2013-06-29 13:24:00,87.8,43.0,29.62,SE,126,10.0,10.0,21,0.00,,---,0.00,VWS V14.01,2013-06-29 17:24:00,
2013-06-29 13:30:00,88.2,42.1,29.62,SE,144,12.2,12.2,20,0.00,,---,0.00,VWS V14.01,2013-06-29 17:30:00,
2013-06-29 13:35:00,88.3,43.5,29.62,SSE,157,12.9,13.2,21,0.00,,---,0.00,VWS V14.01,2013-06-29 17:35:00,
2013-06-29 13:41:00,88.9,43.9,29.62,SSE,151,8.6,11.5,21,0.00,,---,0.00,VWS V14.01,2013-06-29 17:41:00,
2013-06-29 13:47:00,88.9,43.9,29.62,SSE,150,6.4,12.2,21,0.00,,---,0.00,VWS V14.01,2013-06-29 17:47:00,
2013-06-29 13:53:00,89.1,42.8,29.62,SE,138,5.7,13.2,20,0.00,,---,0.00,VWS V14.01,2013-06-29 17:53:00,
2013-06-29 13:59:00,89.1,42.8,29.62,South,180,5.0,15.4,20,0.00,,---,0.00,VWS V14.01,2013-06-29 17:59:00,
2013-06-29 14:05:00,88.9,42.7,29.62,ESE,103,0.0,7.9,20,0.00,,---,0.00,VWS V14.01,2013-06-29 18:05:00,
2013-06-29 14:10:00,88.7,42.5,29.62,SSW,211,0.0,10.0,20,0.00,,---,0.00,VWS V14.01,2013-06-29 18:10:00,
2013-06-29 14:16:00,88.9,42.7,29.62,SW,216,3.6,10.0,20,0.00,,---,0.00,VWS V14.01,2013-06-29 18:16:00,
2013-06-29 14:21:00,89.1,42.8,29.62,SSW,194,5.0,6.4,20,0.00,,---,0.00,VWS V14.01,2013-06-29 18:21:00,
2013-06-29 14:27:00,88.9,41.3,29.62,SSW,196,8.6,9.3,19,0.00,,---,0.00,VWS V14.01,2013-06-29 18:27:00,
2013-06-29 14:33:00,88.7,41.2,29.62,SE,142,9.3,12.9,19,0.00,,---,0.00,VWS V14.01,2013-06-29 18:33:00,
2013-06-29 14:38:00,88.9,41.3,29.62,SE,132,7.9,7.9,19,0.00,,---,0.00,VWS V14.01,2013-06-29 18:38:00,
2013-06-29 14:44:00,89.1,41.5,29.62,South,180,5.7,6.4,19,0.00,,---,0.00,VWS V14.01,2013-06-29 18:44:00,
2013-06-29 14:50:00,89.1,41.5,29.62,SSW,192,5.7,7.9,19,0.00,,---,0.00,VWS V14.01,2013-06-29 18:50:00,
2013-06-29 14:55:00,89.4,41.8,29.62,SE,127,3.6,6.4,19,0.00,,---,0.00,VWS V14.01,2013-06-29 18:55:00,
2013-06-29 15:01:00,89.6,41.9,29.62,South,171,6.4,9.3,19,0.00,,---,0.00,VWS V14.01,2013-06-29 19:01:00,
2013-06-29 15:06:00,89.4,41.8,29.62,SSE,154,6.4,8.6,19,0.00,,---,0.00,VWS V14.01,2013-06-29 19:06:00,
2013-06-29 15:12:00,88.9,41.3,29.62,SSE,168,9.3,11.5,19,0.00,,---,0.00,VWS V14.01,2013-06-29 19:12:00,
2013-06-29 15:17:00,88.5,41.0,29.62,SSE,147,9.3,14.0,19,0.00,,---,0.00,VWS V14.01,2013-06-29 19:17:00,
2013-06-29 15:23:00,87.8,40.5,29.62,SE,143,8.6,8.6,19,0.00,,---,0.00,VWS V14.01,2013-06-29 19:23:00,
2013-06-29 15:28:00,88.0,40.6,29.62,South,191,10.0,10.0,19,0.00,,---,0.00,VWS V14.01,2013-06-29 19:28:00,
2013-06-29 15:33:00,88.2,40.8,29.62,West,272,5.0,10.0,19,0.00,,---,0.00,VWS V14.01,2013-06-29 19:33:00,
2013-06-29 15:39:00,88.7,41.2,29.62,SE,127,9.3,10.0,19,0.00,,---,0.00,VWS V14.01,2013-06-29 19:39:00,
2013-06-29 15:44:00,88.7,41.2,29.62,SSE,155,8.6,9.3,19,0.00,,---,0.00,VWS V14.01,2013-06-29 19:44:00,
2013-06-29 15:50:00,89.1,40.1,29.62,South,189,10.0,12.9,18,0.00,,---,0.00,VWS V14.01,2013-06-29 19:50:00,
2013-06-29 15:55:00,88.9,39.9,29.62,SSW,212,6.4,13.2,18,0.00,,---,0.00,VWS V14.01,2013-06-29 19:55:00,
2013-06-29 16:00:00,88.7,39.8,29.62,South,172,8.6,16.1,18,0.00,,---,0.00,VWS V14.01,2013-06-29 20:00:00,
2013-06-29 16:06:00,88.7,39.8,29.62,SW,229,8.6,8.6,18,0.00,,---,0.00,VWS V14.01,2013-06-29 20:06:00,
2013-06-29 16:11:00,88.5,39.7,29.62,South,187,4.3,13.2,18,0.00,,---,0.00,VWS V14.01,2013-06-29 20:11:00,
2013-06-29 16:16:00,88.7,41.2,29.62,South,190,14.0,14.0,19,0.00,,---,0.00,VWS V14.01,2013-06-29 20:16:00,
2013-06-29 16:22:00,89.1,40.1,29.62,South,183,10.0,14.0,18,0.00,,---,0.00,VWS V14.01,2013-06-29 20:22:00,
2013-06-29 16:28:00,89.1,40.1,29.62,SE,144,9.3,12.2,18,0.00,,---,0.00,VWS V14.01,2013-06-29 20:28:00,